createdAt,value
2019-04-03T00:00:15.872Z,42.90
2019-04-03T00:02:46.603Z,37.80
2019-04-03T00:05:18.267Z,34.80
2019-04-03T00:07:49.015Z,33.10
2019-04-03T00:10:19.633Z,32.80
2019-04-03T00:12:50.352Z,32.90
2019-04-03T00:15:21.044Z,34.20
2019-04-03T00:17:51.679Z,33.00
2019-04-03T00:20:22.309Z,32.70
2019-04-03T00:22:53.133Z,33.90
2019-04-03T00:25:23.647Z,31.30
2019-04-03T00:27:54.473Z,31.30
2019-04-03T00:30:24.992Z,32.50
2019-04-03T00:32:55.809Z,31.70
2019-04-03T00:35:26.379Z,30.50
2019-04-03T00:37:57.218Z,29.60
2019-04-03T00:40:27.975Z,30.10
2019-04-03T00:42:58.780Z,30.70
2019-04-03T00:45:29.401Z,30.20
2019-04-03T00:48:00.254Z,30.00
2019-04-03T00:50:30.859Z,29.10
2019-04-03T00:53:01.483Z,28.60
2019-04-03T00:55:32.021Z,28.80
2019-04-03T00:58:04.217Z,28.90
2019-04-03T01:00:34.911Z,29.80
2019-04-03T01:03:05.574Z,29.30
2019-04-03T01:05:37.213Z,30.00
2019-04-03T01:08:07.838Z,29.50
2019-04-03T01:13:54.053Z,30.60
2019-04-03T01:16:24.664Z,29.80
2019-04-03T01:18:55.301Z,29.50
2019-04-03T01:21:28.701Z,29.20
2019-04-03T01:23:59.523Z,28.70
2019-04-03T01:26:31.365Z,28.70
2019-04-03T01:29:02.203Z,29.30
2019-04-03T01:31:32.833Z,29.50
2019-04-03T01:34:03.565Z,29.70
2019-04-03T01:36:36.431Z,30.00
2019-04-03T01:39:07.666Z,29.80
2019-04-03T01:41:38.185Z,29.70
2019-04-03T01:44:09.009Z,30.10
2019-04-03T01:46:39.977Z,30.20
2019-04-03T01:49:10.710Z,29.60
2019-04-03T01:51:44.071Z,30.60
2019-04-03T01:54:14.862Z,31.20
2019-04-03T01:56:46.518Z,30.00
2019-04-03T01:59:17.324Z,30.80
2019-04-03T02:01:47.963Z,31.10
2019-04-03T02:04:18.609Z,32.00
2019-04-03T02:06:50.400Z,31.00
2019-04-03T02:09:22.233Z,30.50
2019-04-03T02:11:52.868Z,30.60
2019-04-03T02:14:23.653Z,31.10
2019-04-03T02:16:54.185Z,31.90
2019-04-03T02:19:26.584Z,32.40
2019-04-03T02:21:58.741Z,33.00
2019-04-03T02:24:31.773Z,33.20
2019-04-03T02:27:03.141Z,33.50
2019-04-03T02:29:35.410Z,34.00
2019-04-03T02:32:06.124Z,34.30
2019-04-03T02:34:37.141Z,34.30
2019-04-03T02:37:08.126Z,34.30
2019-04-03T02:39:38.998Z,35.00
2019-04-03T02:42:09.945Z,35.10
2019-04-03T02:44:40.875Z,36.50
2019-04-03T02:47:12.765Z,36.00
2019-04-03T02:49:43.980Z,36.20
2019-04-03T02:52:14.730Z,36.70
2019-04-03T02:54:45.962Z,36.80
2019-04-03T02:57:17.862Z,36.10
2019-04-03T02:59:49.042Z,36.40
2019-04-03T03:02:19.968Z,36.30
2019-04-03T03:04:54.033Z,36.40
2019-04-03T03:10:20.537Z,36.60
2019-04-03T03:12:51.393Z,36.30
2019-04-03T03:15:45.028Z,37.10
2019-04-03T03:18:16.328Z,36.80
2019-04-03T03:20:47.672Z,36.90
2019-04-03T03:23:22.463Z,37.40
2019-04-03T03:25:51.535Z,37.80
2019-04-03T03:28:25.093Z,38.50
2019-04-03T03:31:02.632Z,38.70
2019-04-03T03:33:35.443Z,39.00
2019-04-03T03:36:02.533Z,39.40
2019-04-03T03:38:33.934Z,40.00
2019-04-03T03:41:05.124Z,39.90
2019-04-03T03:43:38.376Z,40.10
2019-04-03T03:46:08.084Z,39.90
2019-04-03T03:48:42.502Z,40.10
2019-04-03T03:51:13.162Z,40.40
2019-04-03T03:53:45.804Z,40.40
2019-04-03T03:56:20.619Z,40.40
2019-04-03T03:58:52.159Z,40.50
2019-04-03T04:01:23.185Z,40.80
2019-04-03T04:03:53.894Z,41.10
2019-04-03T04:06:28.209Z,41.50
2019-04-03T04:08:57.946Z,41.70
2019-04-03T04:11:30.795Z,42.00
2019-04-03T04:14:01.817Z,42.20
2019-04-03T04:16:37.353Z,42.20
2019-04-03T04:19:08.839Z,42.30
2019-04-03T04:21:42.483Z,42.40
2019-04-03T04:24:12.300Z,42.60
2019-04-03T04:26:43.924Z,42.90
2019-04-03T04:29:14.831Z,44.00
2019-04-03T04:31:57.360Z,43.70
2019-04-03T04:34:35.143Z,43.90
2019-04-03T04:37:06.024Z,44.30
2019-04-03T04:39:36.758Z,45.10
2019-04-03T04:42:07.415Z,45.90
2019-04-03T04:44:40.352Z,46.80
2019-04-03T04:50:00.977Z,48.60
2019-04-03T04:52:31.576Z,49.20
2019-04-03T04:55:02.914Z,49.50
2019-04-03T04:57:33.659Z,49.70
2019-04-03T05:00:06.900Z,49.70
2019-04-03T05:02:37.507Z,49.50
2019-04-03T05:05:08.966Z,49.60
2019-04-03T05:07:39.789Z,50.00
2019-04-03T05:10:11.447Z,50.30
2019-04-03T05:12:44.747Z,50.20
2019-04-03T05:15:14.613Z,50.40
2019-04-03T05:17:45.308Z,50.60
2019-04-03T05:20:15.976Z,50.40
2019-04-03T05:22:46.604Z,50.50
2019-04-03T05:25:17.323Z,50.90
2019-04-03T05:27:48.077Z,51.30
2019-04-03T05:30:29.552Z,50.90
2019-04-03T05:33:00.656Z,51.10
2019-04-03T05:35:31.523Z,51.10
2019-04-03T05:38:02.237Z,51.30
2019-04-03T05:40:32.884Z,51.60
2019-04-03T05:43:09.222Z,51.30
2019-04-03T05:45:41.790Z,51.10
2019-04-03T05:48:13.528Z,50.20
2019-04-03T05:50:44.808Z,49.20
2019-04-03T05:53:15.588Z,47.70
2019-04-03T05:55:46.499Z,46.20
2019-04-03T05:58:17.350Z,44.60
2019-04-03T06:00:48.104Z,43.40
2019-04-03T06:03:18.988Z,41.70
2019-04-03T06:05:49.784Z,40.00
2019-04-03T06:08:20.723Z,38.50
2019-04-03T06:10:51.576Z,37.70
2019-04-03T06:13:22.314Z,36.40
2019-04-03T06:15:53.739Z,35.60
2019-04-03T06:18:26.518Z,35.00
2019-04-03T06:20:57.140Z,34.80
2019-04-03T06:23:27.879Z,34.10
2019-04-03T06:26:00.722Z,33.20
2019-04-03T06:28:30.651Z,32.10
2019-04-03T06:31:01.168Z,30.80
2019-04-03T06:33:33.586Z,30.10
2019-04-03T06:36:05.161Z,29.30
2019-04-03T06:38:35.615Z,28.90
2019-04-03T06:41:07.786Z,28.80
2019-04-03T06:43:38.009Z,27.70
2019-04-03T06:46:08.340Z,26.70
2019-04-03T06:48:38.763Z,26.40
2019-04-03T06:51:09.262Z,25.60
2019-04-03T06:53:39.856Z,25.70
2019-04-03T06:56:10.362Z,24.30
2019-04-03T06:58:43.826Z,25.80
2019-04-03T07:01:12.748Z,25.30
2019-04-03T07:03:43.099Z,25.70
2019-04-03T07:06:13.719Z,25.90
2019-04-03T07:08:44.282Z,25.80
2019-04-03T07:11:23.319Z,25.90
2019-04-03T07:13:47.607Z,24.60
2019-04-03T07:16:17.851Z,25.00
2019-04-03T07:18:48.408Z,25.10
2019-04-03T07:21:18.675Z,25.40
2019-04-03T07:23:49.136Z,25.20
2019-04-03T07:26:19.569Z,25.20
2019-04-03T07:28:50.006Z,24.20
2019-04-03T07:31:23.266Z,23.80
2019-04-03T07:33:52.369Z,23.40
2019-04-03T07:36:23.644Z,23.80
2019-04-03T07:38:53.981Z,23.30
2019-04-03T07:41:24.792Z,23.20
2019-04-03T07:43:58.113Z,22.90
2019-04-03T07:46:27.407Z,22.50
2019-04-03T07:48:59.941Z,22.10
2019-04-03T07:51:29.937Z,21.70
2019-04-03T07:54:03.855Z,22.30
2019-04-03T07:56:33.283Z,21.80
2019-04-03T07:59:04.299Z,21.20
2019-04-03T08:01:34.824Z,21.00
2019-04-03T08:04:05.558Z,20.90
2019-04-03T08:06:36.418Z,21.80
2019-04-03T08:09:10.272Z,22.40
2019-04-03T08:11:42.120Z,23.00
2019-04-03T08:14:12.673Z,24.20
2019-04-03T08:16:43.373Z,24.80
2019-04-03T08:19:14.136Z,25.70
2019-04-03T08:21:44.576Z,25.50
2019-04-03T08:24:15.375Z,26.00
2019-04-03T08:26:50.955Z,26.80
2019-04-03T08:29:21.024Z,27.40
2019-04-03T08:31:52.566Z,26.50
2019-04-03T08:34:22.982Z,25.00
2019-04-03T08:36:54.317Z,23.90
2019-04-03T08:39:24.678Z,23.00
2019-04-03T08:41:56.106Z,22.20
2019-04-03T08:44:27.076Z,21.40
2019-04-03T08:46:57.678Z,20.10
2019-04-03T08:49:28.765Z,20.40
2019-04-03T08:51:59.258Z,20.30
2019-04-03T08:54:30.792Z,20.00
2019-04-03T08:57:01.168Z,21.40
2019-04-03T08:59:32.830Z,22.90
2019-04-03T09:02:03.186Z,22.60
2019-04-03T09:04:33.729Z,23.00
2019-04-03T09:07:04.335Z,23.10
2019-04-03T09:09:35.783Z,22.10
2019-04-03T09:12:18.934Z,22.60
2019-04-03T09:14:49.768Z,23.60
2019-04-03T09:17:20.280Z,25.70
2019-04-03T09:19:50.921Z,26.40
2019-04-03T09:22:22.231Z,27.80
2019-04-03T09:24:53.215Z,28.70
2019-04-03T09:27:25.074Z,30.90
2019-04-03T09:29:56.189Z,31.80
2019-04-03T09:32:26.864Z,32.70
2019-04-03T09:34:58.948Z,34.00
2019-04-03T09:37:30.846Z,33.60
2019-04-03T09:40:01.549Z,32.90
2019-04-03T09:42:32.229Z,34.00
2019-04-03T09:45:03.144Z,33.90
2019-04-03T09:47:35.174Z,34.70
2019-04-03T09:50:10.016Z,35.30
2019-04-03T09:52:48.118Z,37.20
2019-04-03T09:55:13.339Z,37.80
2019-04-03T09:57:43.995Z,38.30
2019-04-03T10:00:16.177Z,38.70
2019-04-03T10:02:46.972Z,38.50
2019-04-03T10:05:17.732Z,39.60
2019-04-03T10:07:48.462Z,39.50
2019-04-03T10:10:20.333Z,38.90
2019-04-03T10:12:53.617Z,38.30
2019-04-03T10:15:23.387Z,37.40
2019-04-03T10:17:54.386Z,37.60
2019-04-03T10:20:25.298Z,39.20
2019-04-03T10:22:56.273Z,40.00
2019-04-03T10:25:27.771Z,40.50
2019-04-03T10:27:58.960Z,38.20
2019-04-03T10:30:30.703Z,38.40
2019-04-03T10:33:02.039Z,38.80
2019-04-03T10:35:32.903Z,38.30
2019-04-03T10:38:03.579Z,38.40
2019-04-03T10:40:36.480Z,38.00
2019-04-03T10:43:07.221Z,37.00
2019-04-03T10:45:38.157Z,38.40
2019-04-03T10:48:09.080Z,38.70
2019-04-03T10:50:41.413Z,37.90
2019-04-03T10:53:12.203Z,37.60
2019-04-03T10:55:43.069Z,37.40
2019-04-03T10:58:13.723Z,37.40
2019-04-03T11:00:45.739Z,37.00
2019-04-03T11:03:16.534Z,37.00
2019-04-03T11:05:47.314Z,38.10
2019-04-03T11:08:18.057Z,38.70
2019-04-03T11:10:48.823Z,39.70
2019-04-03T11:13:19.501Z,39.30
2019-04-03T11:15:50.427Z,39.90
2019-04-03T11:18:21.881Z,39.60
2019-04-03T11:20:52.752Z,39.30
2019-04-03T11:23:36.934Z,40.00
2019-04-03T11:25:56.824Z,39.30
2019-04-03T11:28:27.559Z,39.40
2019-04-03T11:31:01.149Z,37.90
2019-04-03T11:33:30.811Z,38.40
2019-04-03T11:36:02.267Z,36.50
2019-04-03T11:38:34.852Z,36.60
2019-04-03T11:41:13.125Z,36.80
2019-04-03T11:43:42.268Z,36.90
2019-04-03T11:46:13.879Z,37.20
2019-04-03T11:48:46.073Z,36.30
2019-04-03T11:51:19.023Z,37.00
2019-04-03T11:54:02.300Z,38.10
2019-04-03T11:56:33.119Z,39.30
2019-04-03T11:59:04.060Z,39.70
2019-04-03T12:01:36.401Z,37.80
2019-04-03T12:07:03.005Z,37.00
2019-04-03T12:09:33.850Z,38.50
2019-04-03T12:12:04.743Z,38.60
2019-04-03T12:14:49.052Z,43.40
2019-04-03T12:17:21.224Z,46.90
2019-04-03T12:19:52.117Z,48.60
2019-04-03T12:22:23.138Z,48.70
2019-04-03T12:30:57.595Z,51.00
2019-04-03T12:36:15.056Z,50.30
2019-04-03T12:38:45.818Z,50.70
2019-04-03T12:41:16.659Z,50.50
2019-04-03T12:43:55.934Z,50.50
2019-04-03T12:49:51.960Z,49.50
2019-04-03T12:52:15.241Z,49.90
2019-04-03T12:54:48.640Z,49.80
2019-04-03T12:57:33.052Z,49.30
2019-04-03T13:03:47.169Z,48.30
2019-04-03T13:06:20.389Z,46.80
2019-04-03T13:08:54.933Z,46.90
2019-04-03T13:45:36.823Z,55.70
2019-04-03T13:48:07.714Z,56.60
2019-04-03T13:50:39.102Z,56.90
2019-04-03T13:53:09.893Z,57.70
2019-04-03T13:55:40.864Z,57.80
2019-04-03T13:58:12.857Z,59.10
2019-04-03T14:00:57.828Z,59.40
2019-04-03T14:03:19.897Z,59.00
2019-04-03T14:05:50.604Z,58.90
2019-04-03T14:08:24.398Z,59.40
2019-04-03T14:10:57.357Z,60.20
2019-04-03T14:13:27.530Z,60.60
2019-04-03T14:15:58.327Z,61.40
2019-04-03T14:18:29.480Z,61.80
2019-04-03T14:21:00.392Z,62.60
2019-04-03T14:23:34.152Z,61.80
2019-04-03T14:26:07.962Z,61.80
2019-04-03T14:28:38.562Z,61.60
2019-04-03T14:31:10.742Z,60.20
2019-04-03T14:33:58.989Z,60.00
2019-04-03T14:36:32.810Z,59.60
2019-04-03T14:39:08.352Z,59.50
2019-04-03T14:41:48.681Z,60.30
2019-04-03T14:44:25.367Z,58.80
2019-04-03T14:47:03.561Z,58.40
2019-04-03T14:49:59.714Z,59.10
2019-04-03T14:55:47.680Z,55.40
2019-04-03T14:58:07.969Z,55.90
2019-04-03T15:00:40.222Z,56.20
2019-04-03T15:03:11.513Z,57.10
2019-04-03T15:05:46.272Z,56.80
2019-04-03T15:08:23.715Z,56.30
2019-04-03T15:10:55.713Z,56.00
2019-04-03T15:13:28.724Z,55.50
2019-04-03T15:16:11.029Z,55.60
2019-04-03T15:22:07.056Z,56.70
2019-04-03T15:25:10.897Z,56.70
